sensor_id;sensor_type;location;lat;lon;timestamp;temperature;humidity
21830;DHT22;11077;50.264;6.798;2023-03-19T00:01:59;8.80;99.90
21830;DHT22;11077;50.264;6.798;2023-03-19T00:04:27;8.80;99.90
21830;DHT22;11077;50.264;6.798;2023-03-19T00:06:54;8.80;99.90
21830;DHT22;11077;50.264;6.798;2023-03-19T00:09:21;8.90;99.90
21830;DHT22;11077;50.264;6.798;2023-03-19T00:11:48;8.90;99.90
21830;DHT22;11077;50.264;6.798;2023-03-19T00:14:16;9.00;99.90
21830;DHT22;11077;50.264;6.798;2023-03-19T00:16:43;9.00;99.90
21830;DHT22;11077;50.264;6.798;2023-03-19T00:19:12;9.10;99.90
21830;DHT22;11077;50.264;6.798;2023-03-19T00:21:39;9.10;99.90
21830;DHT22;11077;50.264;6.798;2023-03-19T00:24:06;9.10;99.90
21830;DHT22;11077;50.264;6.798;2023-03-19T00:26:35;9.10;99.90
21830;DHT22;11077;50.264;6.798;2023-03-19T00:29:06;9.10;99.90
21830;DHT22;11077;50.264;6.798;2023-03-19T00:31:33;9.10;99.90
21830;DHT22;11077;50.264;6.798;2023-03-19T00:34:01;9.10;99.90
21830;DHT22;11077;50.264;6.798;2023-03-19T00:36:30;9.00;99.90
21830;DHT22;11077;50.264;6.798;2023-03-19T00:38:57;9.00;99.90
21830;DHT22;11077;50.264;6.798;2023-03-19T00:41:24;9.00;99.90
21830;DHT22;11077;50.264;6.798;2023-03-19T00:43:52;9.00;99.90
21830;DHT22;11077;50.264;6.798;2023-03-19T00:46:20;9.00;99.90
21830;DHT22;11077;50.264;6.798;2023-03-19T00:48:49;8.90;99.90
21830;DHT22;11077;50.264;6.798;2023-03-19T00:51:21;8.80;99.90
21830;DHT22;11077;50.264;6.798;2023-03-19T00:53:50;8.80;99.90
21830;DHT22;11077;50.264;6.798;2023-03-19T00:56:19;8.70;99.90
21830;DHT22;11077;50.264;6.798;2023-03-19T00:58:46;8.60;99.90
21830;DHT22;11077;50.264;6.798;2023-03-19T01:01:16;8.60;99.90
21830;DHT22;11077;50.264;6.798;2023-03-19T01:03:43;8.50;99.90
21830;DHT22;11077;50.264;6.798;2023-03-19T01:06:11;8.50;99.90
21830;DHT22;11077;50.264;6.798;2023-03-19T01:08:39;8.30;99.90
21830;DHT22;11077;50.264;6.798;2023-03-19T01:11:10;8.30;99.90
21830;DHT22;11077;50.264;6.798;2023-03-19T01:13:39;8.20;99.90
21830;DHT22;11077;50.264;6.798;2023-03-19T01:16:08;8.30;99.90
21830;DHT22;11077;50.264;6.798;2023-03-19T01:18:36;8.30;99.90
21830;DHT22;11077;50.264;6.798;2023-03-19T01:21:04;8.30;99.90
21830;DHT22;11077;50.264;6.798;2023-03-19T01:23:36;8.30;99.90
21830;DHT22;11077;50.264;6.798;2023-03-19T01:26:04;8.40;99.90
21830;DHT22;11077;50.264;6.798;2023-03-19T01:28:32;8.50;99.90
21830;DHT22;11077;50.264;6.798;2023-03-19T01:31:01;8.40;99.90
21830;DHT22;11077;50.264;6.798;2023-03-19T01:33:49;8.50;99.90
21830;DHT22;11077;50.264;6.798;2023-03-19T01:36:40;8.40;99.90
21830;DHT22;11077;50.264;6.798;2023-03-19T01:39:07;8.40;99.90
21830;DHT22;11077;50.264;6.798;2023-03-19T01:41:36;8.30;99.90
21830;DHT22;11077;50.264;6.798;2023-03-19T01:44:26;8.30;99.90
21830;DHT22;11077;50.264;6.798;2023-03-19T01:47:16;8.30;99.90
21830;DHT22;11077;50.264;6.798;2023-03-19T01:50:04;8.30;99.90
21830;DHT22;11077;50.264;6.798;2023-03-19T01:52:34;8.30;99.90
21830;DHT22;11077;50.264;6.798;2023-03-19T01:55:21;8.20;99.90
21830;DHT22;11077;50.264;6.798;2023-03-19T01:58:04;8.20;99.90
21830;DHT22;11077;50.264;6.798;2023-03-19T02:00:52;8.20;99.90
21830;DHT22;11077;50.264;6.798;2023-03-19T02:03:20;8.20;99.90
21830;DHT22;11077;50.264;6.798;2023-03-19T02:05:50;8.20;99.90
21830;DHT22;11077;50.264;6.798;2023-03-19T02:08:21;8.30;99.90
21830;DHT22;11077;50.264;6.798;2023-03-19T02:10:50;8.30;99.90
21830;DHT22;11077;50.264;6.798;2023-03-19T02:13:18;8.30;99.90
21830;DHT22;11077;50.264;6.798;2023-03-19T02:15:45;8.30;99.90
21830;DHT22;11077;50.264;6.798;2023-03-19T02:18:14;8.30;99.90
21830;DHT22;11077;50.264;6.798;2023-03-19T02:20:48;8.30;99.90
21830;DHT22;11077;50.264;6.798;2023-03-19T02:23:24;8.40;99.90
21830;DHT22;11077;50.264;6.798;2023-03-19T02:26:03;8.30;99.90
21830;DHT22;11077;50.264;6.798;2023-03-19T02:28:33;8.20;99.90
21830;DHT22;11077;50.264;6.798;2023-03-19T02:31:02;8.20;99.90
21830;DHT22;11077;50.264;6.798;2023-03-19T02:33:29;8.20;99.90
21830;DHT22;11077;50.264;6.798;2023-03-19T02:35:57;8.20;99.90
21830;DHT22;11077;50.264;6.798;2023-03-19T02:38:26;8.20;99.90
21830;DHT22;11077;50.264;6.798;2023-03-19T02:40:58;8.20;99.90
21830;DHT22;11077;50.264;6.798;2023-03-19T02:43:27;8.30;99.90
21830;DHT22;11077;50.264;6.798;2023-03-19T02:45:55;8.20;99.90
21830;DHT22;11077;50.264;6.798;2023-03-19T02:48:23;8.20;99.90
21830;DHT22;11077;50.264;6.798;2023-03-19T02:50:51;8.10;99.90
21830;DHT22;11077;50.264;6.798;2023-03-19T02:53:18;8.00;99.90
21830;DHT22;11077;50.264;6.798;2023-03-19T02:55:45;7.90;99.90
21830;DHT22;11077;50.264;6.798;2023-03-19T02:58:12;7.70;99.90
21830;DHT22;11077;50.264;6.798;2023-03-19T03:00:41;7.70;99.90
21830;DHT22;11077;50.264;6.798;2023-03-19T03:03:08;7.70;99.90
21830;DHT22;11077;50.264;6.798;2023-03-19T03:05:36;7.70;99.90
21830;DHT22;11077;50.264;6.798;2023-03-19T03:08:04;7.70;99.90
21830;DHT22;11077;50.264;6.798;2023-03-19T03:10:32;7.70;99.90
21830;DHT22;11077;50.264;6.798;2023-03-19T03:12:59;7.80;99.90
21830;DHT22;11077;50.264;6.798;2023-03-19T03:15:27;7.90;99.90
21830;DHT22;11077;50.264;6.798;2023-03-19T03:17:55;7.90;99.90
21830;DHT22;11077;50.264;6.798;2023-03-19T03:20:23;8.00;99.90
21830;DHT22;11077;50.264;6.798;2023-03-19T03:22:51;8.00;99.90
21830;DHT22;11077;50.264;6.798;2023-03-19T03:25:19;7.80;99.90
21830;DHT22;11077;50.264;6.798;2023-03-19T03:27:47;8.10;99.90
21830;DHT22;11077;50.264;6.798;2023-03-19T03:30:15;8.10;99.90
21830;DHT22;11077;50.264;6.798;2023-03-19T03:32:42;8.20;99.90
21830;DHT22;11077;50.264;6.798;2023-03-19T03:35:11;8.10;99.90
21830;DHT22;11077;50.264;6.798;2023-03-19T03:37:40;8.10;99.90
21830;DHT22;11077;50.264;6.798;2023-03-19T03:40:10;8.10;99.90
21830;DHT22;11077;50.264;6.798;2023-03-19T03:42:37;8.10;99.90
21830;DHT22;11077;50.264;6.798;2023-03-19T03:45:08;8.10;99.90
21830;DHT22;11077;50.264;6.798;2023-03-19T03:47:36;8.10;99.90
21830;DHT22;11077;50.264;6.798;2023-03-19T03:50:05;8.10;99.90
21830;DHT22;11077;50.264;6.798;2023-03-19T03:52:37;8.10;99.90
21830;DHT22;11077;50.264;6.798;2023-03-19T03:55:05;8.10;99.90
21830;DHT22;11077;50.264;6.798;2023-03-19T03:57:32;8.10;99.90
21830;DHT22;11077;50.264;6.798;2023-03-19T04:00:00;8.10;99.90
21830;DHT22;11077;50.264;6.798;2023-03-19T04:02:27;8.20;99.90
21830;DHT22;11077;50.264;6.798;2023-03-19T04:04:55;8.20;99.90
21830;DHT22;11077;50.264;6.798;2023-03-19T04:07:22;8.20;99.90
21830;DHT22;11077;50.264;6.798;2023-03-19T04:09:57;8.30;99.90
21830;DHT22;11077;50.264;6.798;2023-03-19T04:12:25;8.20;99.90
21830;DHT22;11077;50.264;6.798;2023-03-19T04:14:53;8.20;99.90
21830;DHT22;11077;50.264;6.798;2023-03-19T04:17:20;8.30;99.90
21830;DHT22;11077;50.264;6.798;2023-03-19T04:19:48;8.30;99.90
21830;DHT22;11077;50.264;6.798;2023-03-19T04:22:16;8.20;99.90
21830;DHT22;11077;50.264;6.798;2023-03-19T04:24:43;8.20;99.90
21830;DHT22;11077;50.264;6.798;2023-03-19T04:27:12;8.20;99.90
21830;DHT22;11077;50.264;6.798;2023-03-19T04:29:40;8.30;99.90
21830;DHT22;11077;50.264;6.798;2023-03-19T04:32:07;8.30;99.90
21830;DHT22;11077;50.264;6.798;2023-03-19T04:34:35;8.30;99.90
21830;DHT22;11077;50.264;6.798;2023-03-19T04:37:02;8.30;99.90
21830;DHT22;11077;50.264;6.798;2023-03-19T04:39:32;8.20;99.90
21830;DHT22;11077;50.264;6.798;2023-03-19T04:42:00;8.20;99.90
21830;DHT22;11077;50.264;6.798;2023-03-19T04:44:32;8.20;99.90
21830;DHT22;11077;50.264;6.798;2023-03-19T04:47:00;8.10;99.90
21830;DHT22;11077;50.264;6.798;2023-03-19T04:49:37;8.10;99.90
21830;DHT22;11077;50.264;6.798;2023-03-19T04:52:04;8.10;99.90
21830;DHT22;11077;50.264;6.798;2023-03-19T04:54:32;8.10;99.90
21830;DHT22;11077;50.264;6.798;2023-03-19T04:56:59;8.10;99.90
21830;DHT22;11077;50.264;6.798;2023-03-19T04:59:33;8.10;99.90
21830;DHT22;11077;50.264;6.798;2023-03-19T05:02:00;8.00;99.90
21830;DHT22;11077;50.264;6.798;2023-03-19T05:04:28;8.00;99.90
21830;DHT22;11077;50.264;6.798;2023-03-19T05:07:00;8.00;99.90
21830;DHT22;11077;50.264;6.798;2023-03-19T05:09:29;8.00;99.90
21830;DHT22;11077;50.264;6.798;2023-03-19T05:12:03;8.00;99.90
21830;DHT22;11077;50.264;6.798;2023-03-19T05:17:35;8.00;99.90
21830;DHT22;11077;50.264;6.798;2023-03-19T05:20:49;8.00;99.90
21830;DHT22;11077;50.264;6.798;2023-03-19T05:23:22;7.90;99.90
21830;DHT22;11077;50.264;6.798;2023-03-19T05:25:57;7.90;99.90
21830;DHT22;11077;50.264;6.798;2023-03-19T05:28:48;7.90;99.90
21830;DHT22;11077;50.264;6.798;2023-03-19T05:31:24;8.00;99.90
21830;DHT22;11077;50.264;6.798;2023-03-19T05:33:53;7.90;99.90
21830;DHT22;11077;50.264;6.798;2023-03-19T05:36:25;7.90;99.90
21830;DHT22;11077;50.264;6.798;2023-03-19T05:39:17;7.90;99.90
21830;DHT22;11077;50.264;6.798;2023-03-19T05:41:45;7.90;99.90
21830;DHT22;11077;50.264;6.798;2023-03-19T05:44:17;7.90;99.90
21830;DHT22;11077;50.264;6.798;2023-03-19T05:47:13;7.90;99.90
21830;DHT22;11077;50.264;6.798;2023-03-19T05:49:51;7.70;99.90
21830;DHT22;11077;50.264;6.798;2023-03-19T05:52:19;7.80;99.90
21830;DHT22;11077;50.264;6.798;2023-03-19T05:54:48;7.80;99.90
21830;DHT22;11077;50.264;6.798;2023-03-19T05:57:34;7.80;99.90
21830;DHT22;11077;50.264;6.798;2023-03-19T06:00:07;7.80;99.90
21830;DHT22;11077;50.264;6.798;2023-03-19T06:02:37;7.80;99.90
21830;DHT22;11077;50.264;6.798;2023-03-19T06:05:37;7.80;99.90
21830;DHT22;11077;50.264;6.798;2023-03-19T06:08:19;7.80;99.90
21830;DHT22;11077;50.264;6.798;2023-03-19T06:11:00;7.80;99.90
21830;DHT22;11077;50.264;6.798;2023-03-19T06:13:42;7.80;99.90
21830;DHT22;11077;50.264;6.798;2023-03-19T06:16:17;7.80;99.90
21830;DHT22;11077;50.264;6.798;2023-03-19T06:18:53;7.80;99.90
21830;DHT22;11077;50.264;6.798;2023-03-19T06:21:22;7.70;99.90
21830;DHT22;11077;50.264;6.798;2023-03-19T06:23:58;7.70;99.90
21830;DHT22;11077;50.264;6.798;2023-03-19T06:26:34;7.80;99.90
21830;DHT22;11077;50.264;6.798;2023-03-19T06:29:16;7.80;99.90
21830;DHT22;11077;50.264;6.798;2023-03-19T06:32:00;7.70;99.90
21830;DHT22;11077;50.264;6.798;2023-03-19T06:34:40;8.00;99.90
21830;DHT22;11077;50.264;6.798;2023-03-19T06:37:14;7.80;99.90
21830;DHT22;11077;50.264;6.798;2023-03-19T06:39:46;7.70;99.90
21830;DHT22;11077;50.264;6.798;2023-03-19T06:42:17;7.70;99.90
21830;DHT22;11077;50.264;6.798;2023-03-19T06:44:47;7.70;99.90
21830;DHT22;11077;50.264;6.798;2023-03-19T06:47:14;7.70;99.90
21830;DHT22;11077;50.264;6.798;2023-03-19T06:49:43;7.70;99.90
21830;DHT22;11077;50.264;6.798;2023-03-19T06:52:11;7.70;99.90
21830;DHT22;11077;50.264;6.798;2023-03-19T06:54:38;7.70;99.90
21830;DHT22;11077;50.264;6.798;2023-03-19T06:57:06;7.80;99.90
21830;DHT22;11077;50.264;6.798;2023-03-19T06:59:33;7.80;99.90
21830;DHT22;11077;50.264;6.798;2023-03-19T07:02:03;7.80;99.90
21830;DHT22;11077;50.264;6.798;2023-03-19T07:04:30;7.80;99.90
21830;DHT22;11077;50.264;6.798;2023-03-19T07:06:59;7.80;99.90
21830;DHT22;11077;50.264;6.798;2023-03-19T07:09:27;7.80;99.90
21830;DHT22;11077;50.264;6.798;2023-03-19T07:11:54;7.80;99.90
21830;DHT22;11077;50.264;6.798;2023-03-19T07:14:22;7.80;99.90
21830;DHT22;11077;50.264;6.798;2023-03-19T07:16:49;7.80;99.90
21830;DHT22;11077;50.264;6.798;2023-03-19T07:19:17;7.80;99.90
21830;DHT22;11077;50.264;6.798;2023-03-19T07:21:44;7.80;99.90
21830;DHT22;11077;50.264;6.798;2023-03-19T07:24:13;7.80;99.90
21830;DHT22;11077;50.264;6.798;2023-03-19T07:26:41;7.90;99.90
21830;DHT22;11077;50.264;6.798;2023-03-19T07:29:09;7.90;99.90
21830;DHT22;11077;50.264;6.798;2023-03-19T07:31:37;7.90;99.90
21830;DHT22;11077;50.264;6.798;2023-03-19T07:34:04;7.90;99.90
21830;DHT22;11077;50.264;6.798;2023-03-19T07:36:31;7.90;99.90
21830;DHT22;11077;50.264;6.798;2023-03-19T07:38:59;7.90;99.90
21830;DHT22;11077;50.264;6.798;2023-03-19T07:41:27;7.90;99.90
21830;DHT22;11077;50.264;6.798;2023-03-19T07:43:55;7.90;99.90
21830;DHT22;11077;50.264;6.798;2023-03-19T07:46:22;7.90;99.90
21830;DHT22;11077;50.264;6.798;2023-03-19T07:48:50;7.90;99.90
21830;DHT22;11077;50.264;6.798;2023-03-19T07:51:18;7.90;99.90
21830;DHT22;11077;50.264;6.798;2023-03-19T07:53:46;7.80;99.90
21830;DHT22;11077;50.264;6.798;2023-03-19T07:56:13;7.80;99.90
21830;DHT22;11077;50.264;6.798;2023-03-19T07:58:42;7.80;99.90
21830;DHT22;11077;50.264;6.798;2023-03-19T08:01:10;7.80;99.90
21830;DHT22;11077;50.264;6.798;2023-03-19T08:03:38;7.80;99.90
21830;DHT22;11077;50.264;6.798;2023-03-19T08:06:05;7.90;99.90
21830;DHT22;11077;50.264;6.798;2023-03-19T08:08:33;7.90;99.90
21830;DHT22;11077;50.264;6.798;2023-03-19T08:11:02;7.90;99.90
21830;DHT22;11077;50.264;6.798;2023-03-19T08:13:29;7.90;99.90
21830;DHT22;11077;50.264;6.798;2023-03-19T08:15:58;8.00;99.90
21830;DHT22;11077;50.264;6.798;2023-03-19T08:18:26;8.00;99.90
21830;DHT22;11077;50.264;6.798;2023-03-19T08:20:53;8.00;99.90
21830;DHT22;11077;50.264;6.798;2023-03-19T08:23:21;8.10;99.90
21830;DHT22;11077;50.264;6.798;2023-03-19T08:25:48;8.20;99.90
21830;DHT22;11077;50.264;6.798;2023-03-19T08:28:18;8.20;99.90
21830;DHT22;11077;50.264;6.798;2023-03-19T08:30:46;8.20;99.90
21830;DHT22;11077;50.264;6.798;2023-03-19T08:33:15;8.20;99.90
21830;DHT22;11077;50.264;6.798;2023-03-19T08:35:42;8.20;99.90
21830;DHT22;11077;50.264;6.798;2023-03-19T08:38:10;8.20;99.90
21830;DHT22;11077;50.264;6.798;2023-03-19T08:40:38;8.20;99.90
21830;DHT22;11077;50.264;6.798;2023-03-19T08:43:05;8.20;99.90
21830;DHT22;11077;50.264;6.798;2023-03-19T08:45:33;8.30;99.90
21830;DHT22;11077;50.264;6.798;2023-03-19T08:48:00;8.20;99.90
21830;DHT22;11077;50.264;6.798;2023-03-19T08:50:30;8.20;99.90
21830;DHT22;11077;50.264;6.798;2023-03-19T08:52:58;8.20;99.90
21830;DHT22;11077;50.264;6.798;2023-03-19T08:55:25;8.20;99.90
21830;DHT22;11077;50.264;6.798;2023-03-19T08:57:53;8.30;99.90
21830;DHT22;11077;50.264;6.798;2023-03-19T09:00:21;8.30;99.90
21830;DHT22;11077;50.264;6.798;2023-03-19T09:02:48;8.50;99.90
21830;DHT22;11077;50.264;6.798;2023-03-19T09:05:16;8.50;99.90
21830;DHT22;11077;50.264;6.798;2023-03-19T09:07:49;8.70;99.90
21830;DHT22;11077;50.264;6.798;2023-03-19T09:10:17;8.70;99.90
21830;DHT22;11077;50.264;6.798;2023-03-19T09:12:44;8.70;99.90
21830;DHT22;11077;50.264;6.798;2023-03-19T09:15:12;8.80;99.90
21830;DHT22;11077;50.264;6.798;2023-03-19T09:17:39;8.80;99.90
21830;DHT22;11077;50.264;6.798;2023-03-19T09:20:08;8.80;99.90
21830;DHT22;11077;50.264;6.798;2023-03-19T09:22:36;8.90;99.90
21830;DHT22;11077;50.264;6.798;2023-03-19T09:25:06;8.90;99.90
21830;DHT22;11077;50.264;6.798;2023-03-19T09:27:33;8.90;99.90
21830;DHT22;11077;50.264;6.798;2023-03-19T09:30:01;8.90;99.90
21830;DHT22;11077;50.264;6.798;2023-03-19T09:32:29;8.90;99.90
21830;DHT22;11077;50.264;6.798;2023-03-19T09:34:56;9.00;99.90
21830;DHT22;11077;50.264;6.798;2023-03-19T09:37:23;9.10;99.90
21830;DHT22;11077;50.264;6.798;2023-03-19T09:39:51;9.20;99.90
21830;DHT22;11077;50.264;6.798;2023-03-19T09:45:13;9.30;99.90
21830;DHT22;11077;50.264;6.798;2023-03-19T09:47:42;9.40;99.90
21830;DHT22;11077;50.264;6.798;2023-03-19T09:50:14;9.30;99.90
21830;DHT22;11077;50.264;6.798;2023-03-19T09:52:44;9.30;99.90
21830;DHT22;11077;50.264;6.798;2023-03-19T09:55:24;9.40;99.90
21830;DHT22;11077;50.264;6.798;2023-03-19T09:57:56;9.40;99.90
21830;DHT22;11077;50.264;6.798;2023-03-19T10:00:27;9.40;99.90
21830;DHT22;11077;50.264;6.798;2023-03-19T10:03:02;9.50;99.90
21830;DHT22;11077;50.264;6.798;2023-03-19T10:05:39;9.50;99.90
21830;DHT22;11077;50.264;6.798;2023-03-19T10:08:27;9.50;99.90
21830;DHT22;11077;50.264;6.798;2023-03-19T10:11:21;9.50;99.90
21830;DHT22;11077;50.264;6.798;2023-03-19T10:14:05;9.40;99.90
21830;DHT22;11077;50.264;6.798;2023-03-19T10:19:36;9.60;99.90
21830;DHT22;11077;50.264;6.798;2023-03-19T10:22:07;9.60;99.90
21830;DHT22;11077;50.264;6.798;2023-03-19T10:24:40;9.80;99.90
21830;DHT22;11077;50.264;6.798;2023-03-19T10:27:13;9.80;99.90
21830;DHT22;11077;50.264;6.798;2023-03-19T10:29:42;9.90;99.90
21830;DHT22;11077;50.264;6.798;2023-03-19T10:32:16;9.80;99.90
21830;DHT22;11077;50.264;6.798;2023-03-19T10:34:45;9.90;99.90
21830;DHT22;11077;50.264;6.798;2023-03-19T10:37:15;9.90;99.90
21830;DHT22;11077;50.264;6.798;2023-03-19T10:39:45;9.90;99.90
21830;DHT22;11077;50.264;6.798;2023-03-19T10:45:13;9.80;99.90
21830;DHT22;11077;50.264;6.798;2023-03-19T10:47:45;9.70;99.90
21830;DHT22;11077;50.264;6.798;2023-03-19T10:50:15;9.70;99.90
21830;DHT22;11077;50.264;6.798;2023-03-19T10:52:45;9.70;99.90
21830;DHT22;11077;50.264;6.798;2023-03-19T10:55:17;9.70;99.90
21830;DHT22;11077;50.264;6.798;2023-03-19T10:57:50;9.80;99.90
21830;DHT22;11077;50.264;6.798;2023-03-19T11:00:23;9.80;99.90
21830;DHT22;11077;50.264;6.798;2023-03-19T11:02:53;9.90;99.90
21830;DHT22;11077;50.264;6.798;2023-03-19T11:05:24;10.00;99.90
21830;DHT22;11077;50.264;6.798;2023-03-19T11:07:55;10.00;99.90
21830;DHT22;11077;50.264;6.798;2023-03-19T11:10:24;10.00;99.90
21830;DHT22;11077;50.264;6.798;2023-03-19T11:12:55;9.90;99.90
21830;DHT22;11077;50.264;6.798;2023-03-19T11:15:31;9.80;99.90
21830;DHT22;11077;50.264;6.798;2023-03-19T11:18:06;9.80;99.90
21830;DHT22;11077;50.264;6.798;2023-03-19T11:20:35;9.80;99.90
21830;DHT22;11077;50.264;6.798;2023-03-19T11:23:10;9.80;99.90
21830;DHT22;11077;50.264;6.798;2023-03-19T11:25:39;9.80;99.90
21830;DHT22;11077;50.264;6.798;2023-03-19T11:28:10;9.80;99.90
21830;DHT22;11077;50.264;6.798;2023-03-19T11:30:46;9.80;99.90
21830;DHT22;11077;50.264;6.798;2023-03-19T11:33:42;10.00;99.90
21830;DHT22;11077;50.264;6.798;2023-03-19T11:36:20;10.00;99.90
21830;DHT22;11077;50.264;6.798;2023-03-19T11:38:57;10.00;99.90
21830;DHT22;11077;50.264;6.798;2023-03-19T11:41:38;10.00;99.90
21830;DHT22;11077;50.264;6.798;2023-03-19T11:44:13;10.00;99.90
21830;DHT22;11077;50.264;6.798;2023-03-19T11:46:48;10.10;99.90
21830;DHT22;11077;50.264;6.798;2023-03-19T11:52:26;10.00;99.90
21830;DHT22;11077;50.264;6.798;2023-03-19T11:55:16;9.90;99.90
21830;DHT22;11077;50.264;6.798;2023-03-19T11:57:59;9.90;99.90
21830;DHT22;11077;50.264;6.798;2023-03-19T12:00:32;9.80;99.90
21830;DHT22;11077;50.264;6.798;2023-03-19T12:03:22;9.90;99.90
21830;DHT22;11077;50.264;6.798;2023-03-19T12:05:55;9.80;99.90
21830;DHT22;11077;50.264;6.798;2023-03-19T12:08:35;9.90;99.90
21830;DHT22;11077;50.264;6.798;2023-03-19T12:11:19;9.90;99.90
21830;DHT22;11077;50.264;6.798;2023-03-19T12:14:01;9.90;99.90
21830;DHT22;11077;50.264;6.798;2023-03-19T12:16:43;9.80;99.90
21830;DHT22;11077;50.264;6.798;2023-03-19T12:19:51;9.80;99.90
21830;DHT22;11077;50.264;6.798;2023-03-19T12:22:41;9.80;99.90
21830;DHT22;11077;50.264;6.798;2023-03-19T12:25:27;9.70;99.90
21830;DHT22;11077;50.264;6.798;2023-03-19T12:28:02;9.70;99.90
21830;DHT22;11077;50.264;6.798;2023-03-19T12:30:36;9.70;99.90
21830;DHT22;11077;50.264;6.798;2023-03-19T12:33:20;9.70;99.90
21830;DHT22;11077;50.264;6.798;2023-03-19T12:35:54;9.80;99.90
21830;DHT22;11077;50.264;6.798;2023-03-19T12:38:26;9.90;99.90
21830;DHT22;11077;50.264;6.798;2023-03-19T12:40:58;10.00;99.90
21830;DHT22;11077;50.264;6.798;2023-03-19T12:43:31;10.10;99.90
21830;DHT22;11077;50.264;6.798;2023-03-19T12:46:06;10.10;99.90
21830;DHT22;11077;50.264;6.798;2023-03-19T12:48:39;10.20;99.90
21830;DHT22;11077;50.264;6.798;2023-03-19T12:51:12;10.30;99.90
21830;DHT22;11077;50.264;6.798;2023-03-19T12:53:46;10.30;99.90
21830;DHT22;11077;50.264;6.798;2023-03-19T12:56:20;10.20;99.90
21830;DHT22;11077;50.264;6.798;2023-03-19T12:58:55;10.20;99.90
21830;DHT22;11077;50.264;6.798;2023-03-19T13:01:28;10.10;99.90
21830;DHT22;11077;50.264;6.798;2023-03-19T13:04:00;10.00;99.90
21830;DHT22;11077;50.264;6.798;2023-03-19T13:06:36;10.00;99.90
21830;DHT22;11077;50.264;6.798;2023-03-19T13:09:12;10.00;99.90
21830;DHT22;11077;50.264;6.798;2023-03-19T13:11:44;10.10;99.90
21830;DHT22;11077;50.264;6.798;2023-03-19T13:14:17;10.20;99.90
21830;DHT22;11077;50.264;6.798;2023-03-19T13:16:51;10.20;99.90
21830;DHT22;11077;50.264;6.798;2023-03-19T13:19:27;10.20;99.90
21830;DHT22;11077;50.264;6.798;2023-03-19T13:22:00;10.20;99.90
21830;DHT22;11077;50.264;6.798;2023-03-19T13:24:31;10.20;99.90
21830;DHT22;11077;50.264;6.798;2023-03-19T13:27:00;10.20;99.90
21830;DHT22;11077;50.264;6.798;2023-03-19T13:29:29;10.20;99.90
21830;DHT22;11077;50.264;6.798;2023-03-19T13:32:01;10.30;99.90
21830;DHT22;11077;50.264;6.798;2023-03-19T13:34:31;10.20;99.90
21830;DHT22;11077;50.264;6.798;2023-03-19T13:37:06;10.20;99.90
21830;DHT22;11077;50.264;6.798;2023-03-19T13:39:35;10.20;99.90
21830;DHT22;11077;50.264;6.798;2023-03-19T13:42:10;10.10;99.90
21830;DHT22;11077;50.264;6.798;2023-03-19T13:44:50;10.10;99.90
21830;DHT22;11077;50.264;6.798;2023-03-19T13:47:39;10.10;99.90
21830;DHT22;11077;50.264;6.798;2023-03-19T13:50:22;10.00;99.90
21830;DHT22;11077;50.264;6.798;2023-03-19T13:52:53;10.10;99.90
21830;DHT22;11077;50.264;6.798;2023-03-19T13:55:32;10.00;99.90
21830;DHT22;11077;50.264;6.798;2023-03-19T13:58:12;10.00;99.90
21830;DHT22;11077;50.264;6.798;2023-03-19T14:00:57;10.10;99.90
21830;DHT22;11077;50.264;6.798;2023-03-19T14:03:26;10.00;99.90
21830;DHT22;11077;50.264;6.798;2023-03-19T14:05:55;10.20;99.90
21830;DHT22;11077;50.264;6.798;2023-03-19T14:08:28;10.30;99.90
21830;DHT22;11077;50.264;6.798;2023-03-19T14:10:58;10.50;99.90
21830;DHT22;11077;50.264;6.798;2023-03-19T14:13:32;10.60;99.90
21830;DHT22;11077;50.264;6.798;2023-03-19T14:16:09;10.70;99.90
21830;DHT22;11077;50.264;6.798;2023-03-19T14:18:41;10.70;99.90
21830;DHT22;11077;50.264;6.798;2023-03-19T14:21:14;10.70;99.90
21830;DHT22;11077;50.264;6.798;2023-03-19T14:23:51;10.70;99.90
21830;DHT22;11077;50.264;6.798;2023-03-19T14:26:22;10.60;99.90
21830;DHT22;11077;50.264;6.798;2023-03-19T14:28:57;10.50;99.90
21830;DHT22;11077;50.264;6.798;2023-03-19T14:31:32;10.50;99.90
21830;DHT22;11077;50.264;6.798;2023-03-19T14:34:13;10.50;99.90
21830;DHT22;11077;50.264;6.798;2023-03-19T14:36:46;10.50;99.90
21830;DHT22;11077;50.264;6.798;2023-03-19T14:39:20;10.60;99.90
21830;DHT22;11077;50.264;6.798;2023-03-19T14:41:50;10.70;99.90
21830;DHT22;11077;50.264;6.798;2023-03-19T14:47:53;10.90;99.90
21830;DHT22;11077;50.264;6.798;2023-03-19T14:50:52;11.00;99.90
21830;DHT22;11077;50.264;6.798;2023-03-19T14:53:27;10.90;99.90
21830;DHT22;11077;50.264;6.798;2023-03-19T14:56:05;10.80;99.90
21830;DHT22;11077;50.264;6.798;2023-03-19T14:58:36;10.90;99.90
21830;DHT22;11077;50.264;6.798;2023-03-19T15:01:05;10.90;99.90
21830;DHT22;11077;50.264;6.798;2023-03-19T15:03:35;10.90;99.90
21830;DHT22;11077;50.264;6.798;2023-03-19T15:06:05;10.90;99.90
21830;DHT22;11077;50.264;6.798;2023-03-19T15:08:35;10.90;99.90
21830;DHT22;11077;50.264;6.798;2023-03-19T15:11:22;10.80;99.90
21830;DHT22;11077;50.264;6.798;2023-03-19T15:14:11;10.70;99.90
21830;DHT22;11077;50.264;6.798;2023-03-19T15:16:48;10.80;99.90
21830;DHT22;11077;50.264;6.798;2023-03-19T15:19:23;10.70;99.90
21830;DHT22;11077;50.264;6.798;2023-03-19T15:21:51;10.70;99.90
21830;DHT22;11077;50.264;6.798;2023-03-19T15:24:18;10.70;99.90
21830;DHT22;11077;50.264;6.798;2023-03-19T15:26:47;10.80;99.90
21830;DHT22;11077;50.264;6.798;2023-03-19T15:29:15;10.70;99.90
21830;DHT22;11077;50.264;6.798;2023-03-19T15:31:45;10.70;99.90
21830;DHT22;11077;50.264;6.798;2023-03-19T15:34:20;10.80;99.90
21830;DHT22;11077;50.264;6.798;2023-03-19T15:36:51;10.70;99.90
21830;DHT22;11077;50.264;6.798;2023-03-19T15:39:22;10.70;99.90
21830;DHT22;11077;50.264;6.798;2023-03-19T15:41:53;10.70;99.90
21830;DHT22;11077;50.264;6.798;2023-03-19T15:44:23;10.70;99.90
21830;DHT22;11077;50.264;6.798;2023-03-19T15:46:55;10.70;99.90
21830;DHT22;11077;50.264;6.798;2023-03-19T15:49:27;10.70;99.90
21830;DHT22;11077;50.264;6.798;2023-03-19T15:52:00;10.60;99.90
21830;DHT22;11077;50.264;6.798;2023-03-19T15:54:28;10.60;99.90
21830;DHT22;11077;50.264;6.798;2023-03-19T15:56:57;10.60;99.90
21830;DHT22;11077;50.264;6.798;2023-03-19T15:59:27;10.70;99.90
21830;DHT22;11077;50.264;6.798;2023-03-19T16:01:58;10.60;99.90
21830;DHT22;11077;50.264;6.798;2023-03-19T16:04:26;10.60;99.90
21830;DHT22;11077;50.264;6.798;2023-03-19T16:06:58;10.60;99.90
21830;DHT22;11077;50.264;6.798;2023-03-19T16:09:31;10.60;99.90
21830;DHT22;11077;50.264;6.798;2023-03-19T16:12:00;10.70;99.90
21830;DHT22;11077;50.264;6.798;2023-03-19T16:14:36;10.70;99.90
21830;DHT22;11077;50.264;6.798;2023-03-19T16:17:11;10.60;99.90
21830;DHT22;11077;50.264;6.798;2023-03-19T16:19:49;10.60;99.90
21830;DHT22;11077;50.264;6.798;2023-03-19T16:22:20;10.60;99.90
21830;DHT22;11077;50.264;6.798;2023-03-19T16:24:49;10.60;99.90
21830;DHT22;11077;50.264;6.798;2023-03-19T16:27:25;10.60;99.90
21830;DHT22;11077;50.264;6.798;2023-03-19T16:29:58;10.60;99.90
21830;DHT22;11077;50.264;6.798;2023-03-19T16:32:30;10.50;99.90